Time;durP1;ratioP1;P1;durP2;ratioP2;P2;SDS_P1;SDS_P2;PMS_P1;PMS_P2;Temp;Humidity;BMP_temperature;BMP_pressure;BME280_temperature;BME280_humidity;BME280_pressure;Samples;Min_cycle;Max_cycle;Signal;HPM_P1;HPM_P2
2022/10/22 00:00:23;;;;;;;6.38;2.60;;;;;;;18.25;70.00;100855.50;4907508;29;20039;-73
2022/10/22 00:02:48;;;;;;;6.80;2.70;;;;;;;18.17;70.17;100846.91;4921028;28;20495;-74
2022/10/22 00:05:14;;;;;;;11.60;3.30;;;;;;;18.18;70.40;100849.47;4903850;29;20047;-74
2022/10/22 00:07:39;;;;;;;6.28;2.92;;;;;;;18.04;71.23;100848.00;4911541;29;20488;-73
2022/10/22 00:10:07;;;;;;;10.27;2.75;;;;;;;17.93;71.94;100842.88;4909555;28;20493;-74
2022/10/22 00:12:32;;;;;;;6.55;3.00;;;;;;;18.14;70.85;100844.28;4904414;29;20463;-73
2022/10/22 00:14:58;;;;;;;6.57;2.83;;;;;;;18.04;70.77;100843.59;4909255;28;20051;-74
2022/10/22 00:17:23;;;;;;;9.98;2.83;;;;;;;17.84;72.27;100849.22;4908714;29;20024;-74
2022/10/22 00:19:49;;;;;;;6.75;2.63;;;;;;;18.13;71.22;100851.34;4912283;29;20059;-74
2022/10/22 00:22:14;;;;;;;6.70;2.75;;;;;;;18.26;70.53;100854.63;4911803;28;20356;-73
2022/10/22 00:24:39;;;;;;;6.90;2.83;;;;;;;18.21;70.71;100857.34;4906156;29;20039;-74
2022/10/22 00:27:07;;;;;;;7.60;2.80;;;;;;;18.29;70.40;100859.00;4905540;28;20048;-72
2022/10/22 00:29:32;;;;;;;5.47;2.60;;;;;;;18.25;70.86;100866.06;4912396;29;20031;-73
2022/10/22 00:31:58;;;;;;;8.63;2.83;;;;;;;18.29;70.52;100869.53;4908189;29;20055;-73
2022/10/22 00:34:23;;;;;;;6.13;3.05;;;;;;;18.18;71.26;100870.59;4905461;29;20051;-74
2022/10/22 00:36:50;;;;;;;9.48;2.95;;;;;;;18.20;71.31;100862.66;4911993;29;20102;-73
2022/10/22 00:39:17;;;;;;;5.60;2.70;;;;;;;18.29;71.01;100862.50;4907224;28;21165;-73
2022/10/22 00:41:44;;;;;;;5.85;2.60;;;;;;;18.31;71.22;100873.88;4908109;29;20051;-73
2022/10/22 00:44:49;;;;;;;7.20;2.70;;;;;;;18.45;70.67;100876.28;4909021;29;20035;-74
2022/10/22 00:47:16;;;;;;;6.27;2.70;;;;;;;18.64;70.09;100873.28;4909440;29;20535;-74
2022/10/22 00:49:43;;;;;;;4.75;2.42;;;;;;;18.50;70.20;100877.03;4903487;29;20470;-73
2022/10/22 00:52:08;;;;;;;5.90;2.70;;;;;;;18.41;70.62;100877.25;4902859;29;20174;-73
2022/10/22 00:54:34;;;;;;;6.60;2.75;;;;;;;18.46;70.50;100872.75;4907915;29;20530;-74
2022/10/22 00:57:00;;;;;;;6.65;2.80;;;;;;;18.74;69.21;100879.25;4905643;28;20630;-73
2022/10/22 00:59:27;;;;;;;4.85;2.58;;;;;;;18.65;69.54;100879.44;4908293;29;20027;-73
2022/10/22 01:01:52;;;;;;;10.27;2.85;;;;;;;18.59;69.58;100877.78;4911245;29;20032;-74
2022/10/22 01:04:19;;;;;;;6.35;2.50;;;;;;;18.56;69.84;100876.97;4900087;28;20048;-74
2022/10/22 01:06:44;;;;;;;6.93;2.80;;;;;;;18.70;69.50;100876.69;4910053;29;20150;-73
2022/10/22 01:09:49;;;;;;;6.75;2.65;;;;;;;18.59;70.02;100880.44;4905259;28;20052;-74
2022/10/22 01:12:26;;;;;;;6.57;2.67;;;;;;;18.75;69.21;100885.41;4907053;29;20079;-73
2022/10/22 01:15:16;;;;;;;8.27;2.60;;;;;;;18.77;69.09;100883.59;4906593;28;20043;-73
2022/10/22 01:17:54;;;;;;;7.53;2.53;;;;;;;18.80;68.85;100891.44;4909452;29;20070;-73
2022/10/22 01:20:22;;;;;;;8.23;2.60;;;;;;;18.79;68.88;100889.72;4907024;28;20115;-73
2022/10/22 01:23:09;;;;;;;7.25;2.30;;;;;;;18.84;68.58;100890.50;4911389;29;20524;-74
2022/10/22 01:25:38;;;;;;;10.68;2.65;;;;;;;18.70;68.98;100892.56;4908232;29;20039;-73
2022/10/22 01:28:09;;;;;;;9.98;2.50;;;;;;;18.70;68.95;100882.84;4904772;28;20317;-74
2022/10/22 01:30:36;;;;;;;8.85;2.72;;;;;;;18.72;68.84;100891.63;4906621;29;20046;-74
2022/10/22 01:33:05;;;;;;;7.13;2.47;;;;;;;18.50;69.42;100879.69;4907600;29;20491;-73
2022/10/22 01:35:37;;;;;;;6.50;2.33;;;;;;;18.72;68.99;100883.72;4912922;29;20027;-72
2022/10/22 01:38:07;;;;;;;8.80;2.25;;;;;;;18.71;68.35;100889.88;4912087;29;20110;-73
2022/10/22 01:40:35;;;;;;;5.20;2.10;;;;;;;18.69;68.66;100891.69;4902397;28;20163;-73
2022/10/22 01:43:03;;;;;;;5.85;2.30;;;;;;;18.66;68.29;100890.88;4909720;29;20134;-73
2022/10/22 01:45:33;;;;;;;10.30;2.50;;;;;;;18.54;68.60;100889.31;4905085;28;20059;-73
2022/10/22 01:48:37;;;;;;;6.70;2.33;;;;;;;18.37;69.09;100883.44;4901864;29;20039;-73
2022/10/22 01:51:09;;;;;;;9.80;2.40;;;;;;;18.50;68.53;100883.19;4905231;28;20081;-74
2022/10/22 01:53:48;;;;;;;9.27;2.22;;;;;;;18.45;68.59;100884.19;4907143;29;20103;-73
2022/10/22 01:56:29;;;;;;;9.35;2.13;;;;;;;18.49;68.35;100878.81;4909556;29;20450;-73
2022/10/22 01:59:14;;;;;;;8.07;2.30;;;;;;;18.38;68.61;100880.78;4914443;29;20479;-73
2022/10/22 02:02:20;;;;;;;4.68;2.00;;;;;;;18.15;69.55;100880.34;4908510;29;20307;-73
2022/10/22 02:04:53;;;;;;;6.97;2.05;;;;;;;18.39;68.56;100881.66;4911190;28;20050;-73
2022/10/22 02:07:24;;;;;;;5.93;1.90;;;;;;;18.40;68.23;100884.28;4910421;29;20419;-72
2022/10/22 02:09:52;;;;;;;7.50;2.17;;;;;;;18.34;68.33;100880.88;4910609;29;20071;-73
2022/10/22 02:12:20;;;;;;;8.57;2.13;;;;;;;18.37;68.20;100886.09;4913263;29;20098;-73
2022/10/22 02:14:48;;;;;;;12.23;2.38;;;;;;;18.37;68.17;100889.59;4906224;28;20051;-74
2022/10/22 02:17:17;;;;;;;10.30;2.15;;;;;;;18.35;68.00;100886.16;4913097;29;20029;-73
2022/10/22 02:19:56;;;;;;;6.13;2.05;;;;;;;18.21;68.71;100890.78;4918951;29;20058;-72
2022/10/22 02:22:22;;;;;;;5.95;2.30;;;;;;;18.36;68.05;100882.56;4905817;28;20126;-72
2022/10/22 02:24:49;;;;;;;7.70;2.08;;;;;;;18.37;68.18;100878.16;4913797;29;20042;-73
2022/10/22 02:27:29;;;;;;;8.98;2.40;;;;;;;18.27;68.41;100885.41;4905166;28;20051;-72
2022/10/22 02:30:13;;;;;;;8.60;2.25;;;;;;;18.44;67.77;100882.44;4914612;29;20039;-74
2022/10/22 02:32:41;;;;;;;6.55;2.05;;;;;;;18.23;68.13;100889.00;4912646;29;21045;-73
2022/10/22 02:35:10;;;;;;;8.02;2.22;;;;;;;18.29;68.05;100885.38;4908334;28;20043;-75
2022/10/22 02:37:36;;;;;;;10.55;2.50;;;;;;;18.28;67.87;100887.16;4915513;29;20045;-73
2022/10/22 02:40:02;;;;;;;8.65;2.42;;;;;;;18.20;68.01;100881.13;4906951;29;20614;-73
2022/10/22 02:42:29;;;;;;;6.63;2.50;;;;;;;18.11;68.77;100870.75;4906848;29;20098;-75
2022/10/22 02:44:54;;;;;;;12.75;2.50;;;;;;;18.05;69.08;100882.25;4931118;28;20027;-74
2022/10/22 02:47:20;;;;;;;7.13;2.40;;;;;;;18.19;68.52;100876.75;4909596;28;20051;-73
2022/10/22 02:49:45;;;;;;;7.55;2.20;;;;;;;18.17;68.53;100878.56;4911155;29;20093;-73
2022/10/22 02:52:10;;;;;;;9.65;2.38;;;;;;;18.17;68.08;100875.91;4913594;29;20397;-72
2022/10/22 02:54:36;;;;;;;8.88;2.63;;;;;;;18.21;68.20;100878.47;4905205;28;20170;-73
2022/10/22 02:57:01;;;;;;;7.68;2.47;;;;;;;18.25;67.80;100887.19;4910768;29;20105;-73
2022/10/22 02:59:26;;;;;;;6.32;2.22;;;;;;;18.00;69.05;100883.22;4908874;28;20067;-73
2022/10/22 03:01:52;;;;;;;7.85;2.38;;;;;;;18.19;68.27;100882.88;4908812;29;20075;-73
2022/10/22 03:04:17;;;;;;;10.18;2.50;;;;;;;18.19;68.21;100882.00;4913413;29;20031;-73
2022/10/22 03:06:43;;;;;;;7.10;2.22;;;;;;;18.12;68.62;100883.00;4906056;28;20114;-73
2022/10/22 03:09:09;;;;;;;7.70;2.20;;;;;;;18.03;68.66;100885.81;4912371;29;20409;-73
2022/10/22 03:11:35;;;;;;;8.32;2.30;;;;;;;18.19;68.28;100885.53;4909222;28;20070;-74
2022/10/22 03:14:00;;;;;;;8.10;2.22;;;;;;;18.17;68.14;100886.47;4910676;29;20547;-75
2022/10/22 03:16:25;;;;;;;7.72;2.33;;;;;;;18.16;68.17;100882.09;4905733;28;20122;-72
2022/10/22 03:18:51;;;;;;;9.73;2.00;;;;;;;18.18;68.12;100886.41;4905335;29;20358;-73
2022/10/22 03:21:36;;;;;;;5.90;2.10;;;;;;;18.07;68.71;100888.38;4912808;29;20028;-72
2022/10/22 03:24:08;;;;;;;10.43;2.30;;;;;;;17.99;68.90;100892.91;4905218;28;20164;-73
2022/10/22 03:26:34;;;;;;;9.23;2.78;;;;;;;18.12;68.49;100894.44;4908758;29;20038;-73
2022/10/22 03:29:00;;;;;;;11.77;2.08;;;;;;;18.08;68.66;100889.25;4907683;28;20464;-72
2022/10/22 03:31:25;;;;;;;6.55;2.00;;;;;;;18.14;68.45;100891.78;4911349;29;20028;-73
2022/10/22 03:33:50;;;;;;;8.75;2.15;;;;;;;18.14;68.63;100895.31;4919054;29;20387;-73
2022/10/22 03:36:16;;;;;;;9.40;2.22;;;;;;;17.94;69.14;100886.84;4906972;29;20088;-74
2022/10/22 03:38:41;;;;;;;11.63;2.05;;;;;;;18.01;69.08;100885.84;4911651;29;20325;-73
2022/10/22 03:41:07;;;;;;;6.10;1.73;;;;;;;18.24;68.16;100896.88;4893132;29;20110;-74
2022/10/22 03:43:34;;;;;;;8.80;2.33;;;;;;;18.20;67.82;100895.19;4913596;29;20028;-75
2022/10/22 03:46:00;;;;;;;9.02;2.33;;;;;;;18.19;68.29;100903.13;4910614;29;20039;-74
2022/10/22 03:48:25;;;;;;;8.50;1.90;;;;;;;18.21;68.56;100906.63;4906370;29;20494;-74
2022/10/22 03:50:51;;;;;;;8.55;2.13;;;;;;;18.16;68.26;100900.56;4914501;28;20047;-74
2022/10/22 03:53:16;;;;;;;7.57;1.80;;;;;;;18.17;68.22;100907.59;4909810;28;20407;-74
2022/10/22 03:55:41;;;;;;;9.43;2.15;;;;;;;18.19;68.56;100909.28;4907786;29;20531;-73
2022/10/22 03:58:07;;;;;;;7.43;2.15;;;;;;;18.24;68.09;100901.28;4909015;29;20039;-74
2022/10/22 04:00:34;;;;;;;9.05;2.13;;;;;;;18.31;67.98;100907.31;4910931;28;20036;-74
2022/10/22 04:02:59;;;;;;;8.73;2.13;;;;;;;18.27;67.85;100905.63;4908834;29;20042;-73
2022/10/22 04:05:25;;;;;;;9.43;2.00;;;;;;;18.34;67.78;100912.56;4910962;28;20047;-73
2022/10/22 04:07:50;;;;;;;5.68;1.73;;;;;;;18.41;67.50;100909.78;4912094;29;20071;-75
2022/10/22 04:10:16;;;;;;;7.45;2.03;;;;;;;18.14;68.38;100912.91;4912918;29;20123;-73
2022/10/22 04:12:41;;;;;;;8.43;2.13;;;;;;;18.24;67.73;100911.81;4907447;28;20649;-73
2022/10/22 04:15:07;;;;;;;8.45;2.30;;;;;;;18.33;67.20;100919.59;4914210;29;20729;-74
2022/10/22 04:17:35;;;;;;;6.05;2.00;;;;;;;18.25;67.25;100914.44;4909625;28;20091;-74
2022/10/22 04:20:01;;;;;;;5.22;1.85;;;;;;;18.36;67.36;100913.41;4916889;28;20035;-74
2022/10/22 04:22:27;;;;;;;7.10;2.00;;;;;;;18.43;67.03;100921.16;4908132;29;20036;-73
2022/10/22 04:24:52;;;;;;;8.25;2.20;;;;;;;18.20;67.54;100912.78;4911388;29;20302;-74
2022/10/22 04:27:18;;;;;;;9.85;2.33;;;;;;;18.17;67.95;100918.13;4910871;29;20031;-73
2022/10/22 04:29:43;;;;;;;5.20;1.83;;;;;;;18.36;67.47;100926.59;4906750;29;20044;-73
2022/10/22 04:32:08;;;;;;;9.45;2.15;;;;;;;18.29;67.76;100925.84;4913096;29;20073;-74
2022/10/22 04:34:33;;;;;;;7.40;2.00;;;;;;;18.44;67.10;100925.56;4905010;28;20566;-73
2022/10/22 04:36:59;;;;;;;7.28;2.10;;;;;;;18.25;67.84;100932.06;4913992;29;20609;-74
2022/10/22 04:39:24;;;;;;;7.20;2.00;;;;;;;18.46;66.94;100928.19;4911597;29;20483;-74
2022/10/22 04:41:50;;;;;;;7.28;2.05;;;;;;;18.30;67.23;100929.34;4905184;28;20050;-74
2022/10/22 04:44:15;;;;;;;7.70;2.25;;;;;;;18.28;67.44;100934.66;4929442;28;20467;-73
2022/10/22 04:46:40;;;;;;;8.20;2.17;;;;;;;18.40;66.87;100934.44;4906798;28;22654;-73
2022/10/22 04:49:06;;;;;;;9.27;2.15;;;;;;;18.19;67.75;100934.78;4908891;29;20488;-73
2022/10/22 04:51:31;;;;;;;8.48;2.47;;;;;;;18.33;67.29;100934.56;4910381;29;20107;-74
2022/10/22 04:53:56;;;;;;;7.85;2.20;;;;;;;18.35;66.73;100943.34;4907640;28;20044;-74
2022/10/22 04:56:24;;;;;;;7.70;2.08;;;;;;;18.17;67.43;100948.03;4904483;29;20027;-74
2022/10/22 04:59:01;;;;;;;8.82;2.10;;;;;;;18.08;67.64;100948.16;4906112;29;20496;-74
2022/10/22 05:01:32;;;;;;;10.02;2.30;;;;;;;18.10;67.42;100943.75;4910123;29;20114;-74
2022/10/22 05:04:00;;;;;;;8.20;2.20;;;;;;;18.05;67.78;100953.47;4911398;29;20039;-73
2022/10/22 05:06:27;;;;;;;9.27;2.17;;;;;;;17.92;68.36;100954.59;4905936;28;20043;-72
2022/10/22 05:08:55;;;;;;;8.20;2.00;;;;;;;17.88;68.51;100954.63;4908649;29;20031;-73
2022/10/22 05:11:23;;;;;;;7.10;2.00;;;;;;;17.89;68.14;100962.53;4902974;28;20135;-73
2022/10/22 05:13:48;;;;;;;11.00;2.40;;;;;;;17.88;68.24;100957.28;4909837;29;20020;-74
2022/10/22 05:16:14;;;;;;;8.27;2.30;;;;;;;17.80;68.66;100952.16;4912600;29;20146;-74
2022/10/22 05:18:42;;;;;;;7.13;2.20;;;;;;;17.88;68.37;100957.28;4913230;28;20046;-74
2022/10/22 05:21:10;;;;;;;8.63;2.20;;;;;;;17.83;69.02;100958.22;4931197;28;20059;-73
2022/10/22 05:23:36;;;;;;;9.48;2.20;;;;;;;17.79;69.07;100953.03;4910894;28;20156;-74
2022/10/22 05:26:06;;;;;;;7.97;2.60;;;;;;;17.88;68.66;100958.16;4918884;29;20024;-74
2022/10/22 05:28:32;;;;;;;7.15;2.13;;;;;;;17.92;68.62;100965.16;4918005;29;20043;-74
2022/10/22 05:30:59;;;;;;;7.47;2.13;;;;;;;18.01;68.51;100964.13;4911012;29;20085;-73
2022/10/22 05:33:26;;;;;;;7.25;2.10;;;;;;;18.07;68.09;100959.63;4913503;29;20540;-73
2022/10/22 05:35:51;;;;;;;9.27;2.28;;;;;;;18.07;68.16;100970.16;4921669;28;20247;-73
2022/10/22 05:38:18;;;;;;;10.45;2.08;;;;;;;18.01;68.23;100972.03;4909355;29;20462;-73
2022/10/22 05:40:43;;;;;;;9.77;2.30;;;;;;;18.19;67.75;100967.34;4910007;28;20059;-73
2022/10/22 05:43:09;;;;;;;11.05;2.00;;;;;;;18.05;68.25;100971.09;4916313;29;20027;-73
2022/10/22 05:45:39;;;;;;;8.50;2.25;;;;;;;18.15;67.86;100965.66;4912760;29;20032;-73
2022/10/22 05:48:05;;;;;;;7.30;2.33;;;;;;;18.24;67.48;100969.88;4913394;29;20081;-74
2022/10/22 05:50:30;;;;;;;11.23;2.38;;;;;;;18.07;67.78;100962.25;4908559;29;20155;-75
2022/10/22 05:52:56;;;;;;;7.40;2.20;;;;;;;18.17;67.85;100979.69;4910435;28;20412;-73
2022/10/22 05:55:21;;;;;;;6.68;2.10;;;;;;;17.94;68.34;100980.94;4915372;29;20114;-74
2022/10/22 05:57:48;;;;;;;9.82;2.15;;;;;;;18.12;67.78;100985.91;4913116;29;20832;-72
2022/10/22 06:00:15;;;;;;;9.88;2.22;;;;;;;18.04;68.12;100986.06;4909186;28;20071;-72
2022/10/22 06:02:40;;;;;;;11.38;2.22;;;;;;;18.06;68.10;100994.81;4913331;28;20028;-74
2022/10/22 06:05:05;;;;;;;7.43;2.20;;;;;;;18.16;67.64;100998.19;4908219;28;20070;-75
2022/10/22 06:07:32;;;;;;;9.15;2.10;;;;;;;18.09;68.03;100994.78;4926409;28;20047;-73
2022/10/22 06:09:58;;;;;;;7.35;2.10;;;;;;;18.05;68.22;101002.75;4913748;29;20066;-73
2022/10/22 06:12:23;;;;;;;6.18;2.00;;;;;;;18.14;68.05;101002.59;4907184;28;20051;-74
2022/10/22 06:14:49;;;;;;;8.25;2.05;;;;;;;18.15;67.85;100999.06;4913401;29;20027;-73
2022/10/22 06:17:14;;;;;;;9.00;2.20;;;;;;;18.12;67.81;101005.25;4908262;28;20036;-73
2022/10/22 06:19:40;;;;;;;6.97;2.05;;;;;;;18.18;67.91;101006.94;4910894;29;20205;-74
2022/10/22 06:22:06;;;;;;;7.93;2.15;;;;;;;18.10;68.04;101006.19;4910343;29;20108;-72
2022/10/22 06:24:31;;;;;;;9.27;2.00;;;;;;;18.14;67.99;101010.53;4905357;28;20104;-72
2022/10/22 06:26:56;;;;;;;8.18;2.13;;;;;;;18.24;67.67;101015.63;4916708;29;20070;-73
2022/10/22 06:29:22;;;;;;;6.45;1.92;;;;;;;18.35;67.53;101023.41;4909856;28;20047;-72
2022/10/22 06:31:47;;;;;;;8.70;2.28;;;;;;;18.32;67.23;101017.28;4911475;29;20067;-74
2022/10/22 06:34:14;;;;;;;8.07;2.22;;;;;;;18.28;67.52;101026.16;4910878;29;20023;-73
2022/10/22 06:36:41;;;;;;;7.82;1.73;;;;;;;18.35;67.32;101028.69;4906090;29;20035;-74
2022/10/22 06:39:10;;;;;;;6.85;2.00;;;;;;;18.34;67.36;101028.69;4911664;29;20019;-73
2022/10/22 06:41:36;;;;;;;6.85;1.98;;;;;;;18.33;67.05;101026.94;4908222;28;20052;-74
2022/10/22 06:44:01;;;;;;;9.63;2.03;;;;;;;18.31;67.33;101029.59;4911123;29;20098;-74
2022/10/22 06:46:26;;;;;;;7.95;1.80;;;;;;;18.44;66.82;101028.50;4906542;28;20041;-73
2022/10/22 06:48:55;;;;;;;7.10;1.73;;;;;;;18.28;67.70;101034.06;4908427;29;20044;-74
2022/10/22 06:51:21;;;;;;;6.03;1.83;;;;;;;18.52;67.06;101042.47;4912544;29;20447;-74
2022/10/22 06:53:47;;;;;;;9.75;2.00;;;;;;;18.58;66.60;101049.44;4909250;28;20039;-73
2022/10/22 06:56:15;;;;;;;8.73;2.13;;;;;;;18.68;66.28;101045.75;4911246;29;20027;-73
2022/10/22 06:58:41;;;;;;;8.43;1.90;;;;;;;18.77;66.27;101056.16;4906009;28;20418;-74
2022/10/22 07:01:12;;;;;;;8.77;1.90;;;;;;;18.75;66.59;101057.94;4910379;29;20023;-73
2022/10/22 07:03:39;;;;;;;7.22;1.63;;;;;;;18.92;66.15;101060.28;4912999;29;20031;-72
2022/10/22 07:06:10;;;;;;;9.27;2.10;;;;;;;18.77;66.72;101063.22;4910884;28;20783;-74
2022/10/22 07:08:36;;;;;;;5.88;2.13;;;;;;;18.95;66.43;101071.69;4909882;29;20413;-74
2022/10/22 07:11:23;;;;;;;7.75;2.03;;;;;;;18.70;67.01;101061.56;4923088;28;20107;-73
2022/10/22 07:13:49;;;;;;;8.02;1.80;;;;;;;18.82;66.95;101066.63;4914287;29;20032;-73
2022/10/22 07:16:17;;;;;;;8.95;1.80;;;;;;;18.83;66.59;101063.97;4910436;29;20043;-73
2022/10/22 07:18:44;;;;;;;7.20;2.03;;;;;;;18.63;67.49;101076.63;4905044;28;20228;-73
2022/10/22 07:21:10;;;;;;;10.10;2.13;;;;;;;18.51;67.33;101079.44;4912536;28;20028;-73
2022/10/22 07:23:36;;;;;;;9.23;1.90;;;;;;;18.63;67.25;101089.84;4905930;28;20424;-73
2022/10/22 07:26:01;;;;;;;10.18;2.10;;;;;;;18.59;67.23;101080.25;4911078;29;20078;-74
2022/10/22 07:28:27;;;;;;;11.00;2.05;;;;;;;18.73;67.16;101103.75;4907419;28;20059;-74
2022/10/22 07:30:53;;;;;;;8.45;2.00;;;;;;;18.80;66.65;101103.63;4907313;29;20390;-74
2022/10/22 07:33:18;;;;;;;10.00;1.85;;;;;;;18.95;66.31;101111.31;4914782;29;20047;-74
2022/10/22 07:35:44;;;;;;;8.20;1.83;;;;;;;18.72;67.09;101118.75;4906635;29;20050;-73
2022/10/22 07:38:09;;;;;;;8.85;2.00;;;;;;;18.58;67.76;101115.47;4913048;29;20031;-72
2022/10/22 07:40:35;;;;;;;7.30;1.83;;;;;;;18.55;67.63;101123.41;4905180;28;20031;-73
2022/10/22 07:43:01;;;;;;;9.20;2.10;;;;;;;18.90;66.58;101129.03;4912074;29;20024;-73
2022/10/22 07:45:26;;;;;;;7.35;1.70;;;;;;;18.64;67.02;101118.88;4908370;29;20036;-74
2022/10/22 07:47:52;;;;;;;7.88;1.80;;;;;;;18.75;67.03;101133.66;4907759;28;20050;-73
2022/10/22 07:50:17;;;;;;;10.32;1.80;;;;;;;18.89;66.71;101140.50;4908088;29;20095;-72
2022/10/22 07:52:43;;;;;;;8.25;1.98;;;;;;;19.02;65.94;101138.50;4905324;28;20051;-74
2022/10/22 07:55:09;;;;;;;8.60;1.90;;;;;;;19.37;64.93;101144.03;4909474;29;20039;-73
2022/10/22 07:57:36;;;;;;;7.20;2.00;;;;;;;19.29;65.15;101142.41;4909655;29;20032;-74
2022/10/22 08:00:05;;;;;;;7.60;2.10;;;;;;;19.19;65.38;101140.84;4908121;28;20074;-74
2022/10/22 08:02:30;;;;;;;6.93;1.83;;;;;;;19.08;65.61;101145.47;4905073;29;20027;-74
2022/10/22 08:04:56;;;;;;;7.75;1.73;;;;;;;19.36;65.07;101149.34;4908241;28;20052;-72
2022/10/22 08:07:22;;;;;;;8.50;2.10;;;;;;;19.16;66.18;101156.75;4910420;29;20546;-72
2022/10/22 08:09:47;;;;;;;7.47;2.03;;;;;;;19.19;65.58;101154.06;4908701;29;20034;-73
2022/10/22 08:12:12;;;;;;;7.47;2.10;;;;;;;19.59;64.50;101164.81;4907084;29;20051;-74
2022/10/22 08:14:38;;;;;;;8.63;2.03;;;;;;;19.28;64.83;101170.63;4906951;29;20039;-74
2022/10/22 08:17:03;;;;;;;9.30;1.90;;;;;;;19.12;65.73;101168.28;4900949;29;20281;-73
2022/10/22 08:19:31;;;;;;;7.18;1.75;;;;;;;19.44;65.35;101172.13;4897387;28;20047;-73
2022/10/22 08:21:57;;;;;;;8.10;1.75;;;;;;;19.37;65.23;101169.59;4907949;29;20027;-73
2022/10/22 08:24:22;;;;;;;10.60;2.30;;;;;;;19.28;65.05;101189.13;4905480;28;20615;-75
2022/10/22 08:26:47;;;;;;;9.55;1.98;;;;;;;19.30;65.28;101187.34;4911603;29;20027;-74
2022/10/22 08:29:13;;;;;;;13.07;2.05;;;;;;;19.40;64.80;101182.75;4905458;28;20890;-73
2022/10/22 08:31:39;;;;;;;9.10;2.08;;;;;;;19.36;65.19;101194.28;4911128;29;20647;-74
2022/10/22 08:34:04;;;;;;;12.38;1.70;;;;;;;19.74;64.42;101193.63;4906202;28;20778;-74
2022/10/22 08:36:30;;;;;;;6.18;1.60;;;;;;;19.83;64.12;101193.44;4903548;28;20142;-73
2022/10/22 08:38:56;;;;;;;10.40;1.90;;;;;;;19.62;64.08;101199.16;4909885;29;20484;-74
2022/10/22 08:41:23;;;;;;;8.70;1.98;;;;;;;19.60;63.99;101208.88;4891293;29;20063;-73
2022/10/22 08:44:05;;;;;;;10.00;1.80;;;;;;;19.73;64.00;101203.34;4908948;29;20055;-73
2022/10/22 08:46:58;;;;;;;8.48;1.70;;;;;;;19.84;63.98;101208.41;4904103;28;20058;-73
2022/10/22 08:49:27;;;;;;;7.78;1.73;;;;;;;20.11;63.12;101213.19;4913867;29;20036;-73
2022/10/22 08:51:54;;;;;;;7.07;1.60;;;;;;;19.98;63.57;101221.38;4908771;29;20052;-73
2022/10/22 08:54:53;;;;;;;6.25;1.75;;;;;;;19.98;63.30;101224.91;4904178;28;20085;-73
2022/10/22 08:57:22;;;;;;;9.73;2.00;;;;;;;19.24;65.38;101224.47;4915248;28;20039;-73
2022/10/22 08:59:47;;;;;;;6.63;1.85;;;;;;;19.42;65.30;101229.44;4906909;28;20043;-73
2022/10/22 09:02:37;;;;;;;9.25;2.00;;;;;;;19.27;65.57;101228.84;4915748;29;20039;-72
2022/10/22 09:05:20;;;;;;;7.63;1.73;;;;;;;19.34;65.45;101235.75;4903790;28;20542;-74
2022/10/22 09:07:49;;;;;;;9.52;2.17;;;;;;;19.71;64.33;101231.59;4910123;29;20118;-73
2022/10/22 09:10:16;;;;;;;9.27;1.80;;;;;;;19.63;64.76;101230.00;4909769;29;20039;-73
2022/10/22 09:12:41;;;;;;;8.02;1.98;;;;;;;19.65;64.79;101249.34;4904467;28;20044;-73
2022/10/22 09:15:12;;;;;;;10.32;2.40;;;;;;;19.64;64.49;101244.97;4909279;29;20090;-72
2022/10/22 09:17:48;;;;;;;6.65;1.88;;;;;;;19.79;64.35;101248.19;4905483;28;20050;-73
2022/10/22 09:20:25;;;;;;;11.63;2.40;;;;;;;19.63;63.94;101252.03;4913215;29;20413;-74
2022/10/22 09:23:03;;;;;;;6.90;2.17;;;;;;;19.91;63.35;101249.75;4906053;29;20055;-73
2022/10/22 09:25:32;;;;;;;10.00;2.30;;;;;;;20.27;62.89;101256.06;4910710;29;20040;-72
2022/10/22 09:27:58;;;;;;;12.38;2.30;;;;;;;20.34;62.98;101252.44;4911968;29;20032;-73
2022/10/22 09:30:26;;;;;;;9.48;2.30;;;;;;;20.51;62.44;101257.38;4902721;28;20050;-73
2022/10/22 09:33:05;;;;;;;8.05;1.85;;;;;;;20.24;62.44;101257.03;4908334;29;20031;-73
2022/10/22 09:35:45;;;;;;;8.90;2.10;;;;;;;20.16;64.02;101258.94;4903282;28;20118;-72
2022/10/22 09:38:13;;;;;;;8.52;2.20;;;;;;;20.62;62.03;101266.81;4910899;29;20028;-74
2022/10/22 09:40:48;;;;;;;10.68;2.17;;;;;;;20.80;61.83;101270.84;4900658;28;20946;-73
2022/10/22 09:43:14;;;;;;;9.38;2.22;;;;;;;21.14;60.76;101275.38;4911271;29;20036;-73
2022/10/22 09:45:41;;;;;;;10.65;2.17;;;;;;;20.69;61.70;101277.28;4909999;29;20091;-72
2022/10/22 09:48:38;;;;;;;8.95;1.80;;;;;;;20.97;61.83;101278.44;4905911;29;20048;-74
2022/10/22 09:51:11;;;;;;;6.68;1.70;;;;;;;20.98;60.73;101280.19;4907462;29;20559;-72
2022/10/22 09:53:40;;;;;;;12.93;2.20;;;;;;;20.89;60.40;101289.22;4905357;28;20574;-72
2022/10/22 09:56:37;;;;;;;9.48;2.08;;;;;;;21.12;60.21;101285.16;4904806;29;20340;-71
2022/10/22 09:59:03;;;;;;;11.70;2.10;;;;;;;21.23;59.36;101285.78;4885622;29;20602;-74
2022/10/22 10:01:32;;;;;;;9.77;1.80;;;;;;;21.38;59.19;101290.75;4911645;29;20122;-74
2022/10/22 10:04:09;;;;;;;10.07;1.90;;;;;;;20.92;60.79;101289.13;4909931;29;20471;-73
2022/10/22 10:06:35;;;;;;;10.23;1.63;;;;;;;21.25;60.75;101286.63;4903356;28;20058;-73
2022/10/22 10:09:04;;;;;;;11.15;1.95;;;;;;;21.02;60.27;101309.22;4909473;29;20115;-72
2022/10/22 10:11:54;;;;;;;9.18;1.85;;;;;;;21.04;59.95;101306.56;4901362;29;20036;-73
2022/10/22 10:14:34;;;;;;;8.80;1.88;;;;;;;21.19;59.21;101310.66;4906698;29;20032;-73
2022/10/22 10:17:07;;;;;;;9.93;1.83;;;;;;;21.20;59.12;101312.41;4905282;28;20078;-73
2022/10/22 10:19:58;;;;;;;13.55;1.80;;;;;;;21.13;58.96;101322.25;4911154;29;20509;-75
2022/10/22 10:22:29;;;;;;;11.73;1.90;;;;;;;20.93;58.64;101319.16;4898383;28;20034;-73
2022/10/22 10:24:57;;;;;;;10.90;1.55;;;;;;;20.96;57.53;101332.34;4913275;29;20031;-73
2022/10/22 10:27:50;;;;;;;7.80;1.80;;;;;;;21.01;57.23;101328.69;4911351;29;20075;-74
2022/10/22 10:30:19;;;;;;;10.10;1.60;;;;;;;20.97;56.97;101329.69;4903536;28;20054;-74
2022/10/22 10:33:15;;;;;;;11.52;1.90;;;;;;;20.90;56.95;101340.44;4904321;29;20603;-74
2022/10/22 10:36:05;;;;;;;20.70;2.45;;;;;;;20.35;57.98;101341.56;4907533;28;20052;-73
2022/10/22 10:38:40;;;;;;;6.88;1.50;;;;;;;20.82;57.34;101350.31;4907845;29;20036;-73
2022/10/22 10:41:21;;;;;;;11.18;1.90;;;;;;;20.99;56.79;101348.19;4901670;28;20040;-73
2022/10/22 10:44:24;;;;;;;10.40;1.60;;;;;;;21.04;56.60;101348.97;4909736;29;20032;-74
2022/10/22 10:47:39;;;;;;;10.45;1.80;;;;;;;21.28;56.12;101352.88;4925776;28;20043;-74
2022/10/22 10:50:34;;;;;;;11.32;2.22;;;;;;;21.40;52.99;101350.81;4911604;28;20444;-73
2022/10/22 10:53:16;;;;;;;12.20;2.00;;;;;;;21.50;54.61;101364.72;4899611;29;20453;-73
2022/10/22 10:56:00;;;;;;;8.50;1.55;;;;;;;21.64;54.33;101359.09;4900595;29;20094;-73
2022/10/22 10:58:33;;;;;;;13.13;2.00;;;;;;;21.53;54.53;101346.06;4907303;28;20389;-73
2022/10/22 11:01:14;;;;;;;11.63;1.92;;;;;;;21.20;55.56;101352.19;4910154;29;20043;-74
2022/10/22 11:03:52;;;;;;;11.73;2.00;;;;;;;21.68;54.54;101353.66;4911579;29;20118;-74
2022/10/22 11:06:19;;;;;;;17.98;1.90;;;;;;;22.06;53.87;101355.38;4906778;28;20360;-73
2022/10/22 11:08:53;;;;;;;12.35;2.10;;;;;;;21.93;52.88;101345.94;4910055;29;20594;-73
2022/10/22 11:11:28;;;;;;;10.07;2.13;;;;;;;21.74;52.77;101358.81;4906700;29;20043;-73
2022/10/22 11:14:12;;;;;;;16.40;2.33;;;;;;;21.24;55.49;101372.41;4923545;28;20028;-73
2022/10/22 11:16:45;;;;;;;10.88;2.45;;;;;;;21.63;54.28;101375.91;4905040;28;20798;-73
2022/10/22 11:19:35;;;;;;;14.02;2.20;;;;;;;21.48;54.67;101371.84;4912401;29;20090;-74
2022/10/22 11:22:08;;;;;;;12.50;2.20;;;;;;;21.50;54.07;101374.47;4913399;29;20118;-73
2022/10/22 11:24:56;;;;;;;12.80;2.33;;;;;;;21.15;53.56;101380.53;4903641;29;20115;-72
2022/10/22 11:27:21;;;;;;;13.07;2.08;;;;;;;21.47;53.14;101377.19;4908627;29;20035;-73
2022/10/22 11:30:00;;;;;;;15.52;2.15;;;;;;;20.83;54.23;101370.63;4913364;29;20648;-72
2022/10/22 11:32:27;;;;;;;15.75;2.30;;;;;;;20.93;54.69;101382.75;4897937;29;20052;-73
2022/10/22 11:34:55;;;;;;;13.68;2.03;;;;;;;21.06;53.26;101390.44;4910257;29;20046;-73
2022/10/22 11:37:25;;;;;;;15.38;2.03;;;;;;;20.46;54.97;101383.72;4905692;28;20080;-74